createdAt,value
2022-12-29T00:01:30.709Z,102054.09
2022-12-29T00:04:18.650Z,102057.25
2022-12-29T00:07:02.100Z,102064.25
2022-12-29T00:09:44.392Z,102050.16
2022-12-29T00:13:05.046Z,102052.88
2022-12-29T00:15:41.988Z,102051.81
2022-12-29T00:18:16.531Z,102045.69
2022-12-29T00:21:35.722Z,102035.22
2022-12-29T00:24:28.936Z,102045.34
2022-12-29T00:27:21.303Z,102038.00
2022-12-29T00:30:17.165Z,102032.13
2022-12-29T00:33:21.787Z,102029.25
2022-12-29T00:36:07.523Z,102031.00
2022-12-29T00:39:03.693Z,102022.09
2022-12-29T00:41:53.532Z,102033.38
2022-12-29T00:44:27.090Z,102027.19
2022-12-29T00:47:14.495Z,102024.59
2022-12-29T00:49:54.313Z,102027.09
2022-12-29T00:52:44.048Z,102017.41
2022-12-29T00:55:15.338Z,102011.03
2022-12-29T00:57:47.500Z,102004.88
2022-12-29T01:03:13.305Z,102001.06
2022-12-29T01:11:17.591Z,101992.88
2022-12-29T01:13:52.227Z,101995.25
2022-12-29T01:16:36.971Z,102004.13
2022-12-29T01:22:23.945Z,101999.69
2022-12-29T01:24:59.782Z,102006.63
2022-12-29T01:27:34.022Z,102008.28
2022-12-29T01:30:05.288Z,102002.88
2022-12-29T01:32:56.069Z,102005.47
2022-12-29T01:38:46.464Z,102008.06
2022-12-29T01:41:23.036Z,102006.25
2022-12-29T01:43:58.605Z,102006.97
2022-12-29T01:46:41.335Z,102011.19
2022-12-29T01:49:12.460Z,102006.06
2022-12-29T01:51:52.585Z,102005.22
2022-12-29T01:54:30.248Z,102014.56
2022-12-29T01:57:07.704Z,102013.53
2022-12-29T01:59:41.852Z,102012.06
2022-12-29T02:02:17.312Z,102017.06
2022-12-29T02:04:51.265Z,102011.84
2022-12-29T02:07:23.979Z,102019.78
2022-12-29T02:09:57.351Z,102006.56
2022-12-29T02:12:30.964Z,102012.44
2022-12-29T02:15:10.322Z,102010.00
2022-12-29T02:17:47.777Z,102011.63
2022-12-29T02:23:37.868Z,102006.41
2022-12-29T02:26:27.147Z,102012.25
2022-12-29T02:29:00.340Z,102005.41
2022-12-29T02:31:49.853Z,102003.25
2022-12-29T02:34:43.448Z,102001.69
2022-12-29T02:37:40.229Z,101999.75
2022-12-29T02:40:32.989Z,102005.53
2022-12-29T02:43:31.508Z,102003.84
2022-12-29T02:49:05.439Z,102001.63
2022-12-29T02:51:48.738Z,101998.91
2022-12-29T02:54:41.047Z,101997.00
2022-12-29T02:57:26.953Z,101986.63
2022-12-29T03:00:56.262Z,101990.63
2022-12-29T03:03:30.368Z,101985.28
2022-12-29T03:06:18.504Z,101983.09
2022-12-29T03:12:26.274Z,101966.69
2022-12-29T03:15:41.044Z,101964.34
2022-12-29T03:18:20.880Z,101972.41
2022-12-29T03:21:22.756Z,101961.78
2022-12-29T03:23:55.754Z,101963.66
2022-12-29T03:26:38.106Z,101958.13
2022-12-29T03:29:12.528Z,101959.25
2022-12-29T03:31:42.077Z,101961.75
2022-12-29T03:34:11.940Z,101961.78
2022-12-29T03:36:49.681Z,101954.72
2022-12-29T03:39:22.217Z,101952.75
2022-12-29T03:41:58.618Z,101958.78
2022-12-29T03:44:34.797Z,101953.50
2022-12-29T03:47:10.076Z,101949.13
2022-12-29T03:49:52.604Z,101942.16
2022-12-29T03:52:29.677Z,101940.56
2022-12-29T04:00:21.556Z,101938.06
2022-12-29T04:03:00.174Z,101942.38
2022-12-29T04:05:33.080Z,101935.47
2022-12-29T04:08:01.716Z,101931.84
2022-12-29T04:10:40.872Z,101945.88
2022-12-29T04:13:19.764Z,101950.97
2022-12-29T04:15:55.614Z,101943.06
2022-12-29T04:18:34.224Z,101944.50
2022-12-29T04:21:10.449Z,101953.22
2022-12-29T04:23:54.704Z,101947.25
2022-12-29T04:26:31.581Z,101947.78
2022-12-29T04:29:16.798Z,101941.63
2022-12-29T04:32:13.542Z,101955.59
2022-12-29T04:34:52.086Z,101950.75
2022-12-29T04:37:38.868Z,101944.75
2022-12-29T04:40:25.081Z,101941.63
2022-12-29T04:42:57.578Z,101937.00
2022-12-29T04:45:37.400Z,101941.38
2022-12-29T04:48:28.325Z,101935.66
2022-12-29T04:51:25.175Z,101934.56
2022-12-29T04:54:10.191Z,101939.78
2022-12-29T04:56:52.251Z,101942.53
2022-12-29T04:59:24.448Z,101941.31
2022-12-29T05:02:11.925Z,101937.06
2022-12-29T05:04:48.411Z,101943.88
2022-12-29T05:07:24.188Z,101945.63
2022-12-29T05:10:04.365Z,101945.69
2022-12-29T05:12:47.548Z,101956.06
2022-12-29T05:15:23.521Z,101952.03
2022-12-29T05:17:50.975Z,101950.34
2022-12-29T05:20:22.827Z,101951.31
2022-12-29T05:22:57.034Z,101947.16
2022-12-29T05:25:33.551Z,101952.34
2022-12-29T05:28:21.913Z,101942.84
2022-12-29T05:30:52.082Z,101950.34
2022-12-29T05:33:23.590Z,101949.53
2022-12-29T05:35:57.430Z,101949.47
2022-12-29T05:38:27.432Z,101947.00
2022-12-29T05:41:00.465Z,101950.22
2022-12-29T05:44:08.330Z,101939.25
2022-12-29T05:47:06.411Z,101953.06
2022-12-29T05:50:04.889Z,101946.72
2022-12-29T05:52:57.478Z,101947.81
2022-12-29T05:55:54.727Z,101947.81
2022-12-29T05:58:29.405Z,101948.53
2022-12-29T06:01:01.496Z,101957.22
2022-12-29T06:03:30.996Z,101959.81
2022-12-29T06:06:05.253Z,101960.75
2022-12-29T06:08:46.035Z,101952.66
2022-12-29T06:11:16.111Z,101957.28
2022-12-29T06:13:55.361Z,101957.84
2022-12-29T06:16:34.748Z,101966.75
2022-12-29T06:19:13.385Z,101971.56
2022-12-29T06:21:49.244Z,101978.72
2022-12-29T06:24:20.593Z,101972.72
2022-12-29T06:26:55.111Z,101983.13
2022-12-29T06:29:29.026Z,101971.94
2022-12-29T06:32:07.169Z,101984.03
2022-12-29T06:34:48.958Z,101972.94
2022-12-29T06:37:31.819Z,101973.88
2022-12-29T06:40:06.592Z,101978.25
2022-12-29T06:42:53.702Z,101980.63
2022-12-29T06:45:45.284Z,101977.06
2022-12-29T06:48:23.903Z,101976.31
2022-12-29T06:50:51.397Z,101975.50
2022-12-29T06:53:18.877Z,101969.41
2022-12-29T06:55:46.145Z,101970.13
2022-12-29T06:58:22.979Z,101977.66
2022-12-29T07:00:59.374Z,101973.63
2022-12-29T07:03:46.998Z,101971.94
2022-12-29T07:06:30.316Z,101963.41
2022-12-29T07:09:01.832Z,101960.94
2022-12-29T07:11:30.246Z,101963.41
2022-12-29T07:14:04.497Z,101965.91
2022-12-29T07:16:35.747Z,101967.91
2022-12-29T07:19:05.626Z,101977.44
2022-12-29T07:21:32.779Z,101981.06
2022-12-29T07:23:59.896Z,101974.16
2022-12-29T07:26:30.340Z,101976.81
2022-12-29T07:29:04.481Z,101970.06
2022-12-29T07:31:31.908Z,101976.19
2022-12-29T07:33:58.999Z,101978.94
2022-12-29T07:36:32.406Z,101985.63
2022-12-29T07:39:01.369Z,101993.69
2022-12-29T07:41:28.420Z,101988.97
2022-12-29T07:43:55.633Z,101982.16
2022-12-29T07:46:53.680Z,101986.41
2022-12-29T07:49:23.936Z,101998.81
2022-12-29T07:51:51.096Z,101992.94
2022-12-29T07:54:21.118Z,102004.38
2022-12-29T07:56:50.842Z,102004.44
2022-12-29T07:59:20.761Z,102018.22
2022-12-29T08:01:49.401Z,102017.72
2022-12-29T08:04:17.044Z,102019.31
2022-12-29T08:06:46.709Z,102017.88
2022-12-29T08:09:21.677Z,102014.13
2022-12-29T08:11:50.118Z,102020.00
2022-12-29T08:14:17.282Z,102019.50
2022-12-29T08:16:46.562Z,102014.22
2022-12-29T08:19:13.696Z,102020.69
2022-12-29T08:21:41.364Z,102020.91
2022-12-29T08:24:18.684Z,102020.84
2022-12-29T08:26:48.179Z,102021.16
2022-12-29T08:29:18.596Z,102027.53
2022-12-29T08:31:46.107Z,102030.34
2022-12-29T08:34:13.225Z,102025.44
2022-12-29T08:36:40.765Z,102025.59
2022-12-29T08:39:07.901Z,102037.09
2022-12-29T08:41:34.947Z,102034.59
2022-12-29T08:44:02.035Z,102041.66
2022-12-29T08:46:29.264Z,102041.19
2022-12-29T08:48:58.891Z,102046.78
2022-12-29T08:51:25.986Z,102044.19
2022-12-29T08:53:56.033Z,102033.78
2022-12-29T08:56:24.991Z,102041.75
2022-12-29T08:58:56.125Z,102037.13
2022-12-29T09:01:24.592Z,102039.25
2022-12-29T09:06:41.592Z,102043.22
2022-12-29T09:09:08.853Z,102040.25
2022-12-29T09:11:35.887Z,102043.25
2022-12-29T09:14:02.896Z,102048.88
2022-12-29T09:16:29.997Z,102040.47
2022-12-29T09:18:57.040Z,102051.63
2022-12-29T09:21:24.056Z,102053.06
2022-12-29T09:23:53.794Z,102046.59
2022-12-29T09:26:23.605Z,102054.97
2022-12-29T09:28:53.712Z,102050.81
2022-12-29T09:31:21.391Z,102053.56
2022-12-29T09:33:48.525Z,102050.19
2022-12-29T09:36:16.863Z,102047.31
2022-12-29T09:38:48.585Z,102054.03
2022-12-29T09:41:19.359Z,102049.00
2022-12-29T09:44:08.778Z,102048.22
2022-12-29T09:46:40.830Z,102052.38
2022-12-29T09:49:26.690Z,102054.44
2022-12-29T09:52:01.070Z,102041.69
2022-12-29T09:54:28.107Z,102053.25
2022-12-29T09:56:56.820Z,102052.69
2022-12-29T09:59:28.175Z,102054.69
2022-12-29T10:01:59.890Z,102048.94
2022-12-29T10:04:28.832Z,102047.50
2022-12-29T10:10:05.145Z,102032.03
2022-12-29T10:12:35.232Z,102030.88
2022-12-29T10:15:21.151Z,102021.66
2022-12-29T10:17:48.300Z,102014.47
2022-12-29T10:20:27.722Z,102006.94
2022-12-29T10:22:54.765Z,102010.03
2022-12-29T10:25:31.105Z,101998.44
2022-12-29T10:28:03.391Z,102004.72
2022-12-29T10:30:31.734Z,101999.72
2022-12-29T10:33:02.855Z,101995.94
2022-12-29T10:35:40.301Z,101995.81
2022-12-29T10:38:19.771Z,101982.19
2022-12-29T10:40:50.447Z,101979.06
2022-12-29T10:43:26.898Z,101972.72
2022-12-29T10:46:00.212Z,101974.75
2022-12-29T10:48:35.646Z,101964.28
2022-12-29T10:51:04.416Z,101964.34
2022-12-29T10:53:43.615Z,101964.34
2022-12-29T10:56:23.300Z,101964.28
2022-12-29T10:58:51.377Z,101950.06
2022-12-29T11:01:19.722Z,101951.72
2022-12-29T11:04:06.256Z,101945.28
2022-12-29T11:06:35.189Z,101943.84
2022-12-29T11:09:16.180Z,101945.38
2022-12-29T11:11:44.585Z,101932.34
2022-12-29T11:14:14.843Z,101925.78
2022-12-29T11:16:42.945Z,101914.22
2022-12-29T11:19:30.220Z,101921.22
2022-12-29T11:22:12.911Z,101911.13
2022-12-29T11:24:45.972Z,101892.16
2022-12-29T11:27:17.456Z,101894.53
2022-12-29T11:29:44.919Z,101895.84
2022-12-29T11:32:13.326Z,101889.63
2022-12-29T11:34:40.386Z,101885.22
2022-12-29T11:37:17.077Z,101888.44
2022-12-29T11:39:46.952Z,101878.69
2022-12-29T11:42:25.004Z,101883.19
2022-12-29T11:44:55.308Z,101881.41
2022-12-29T11:47:33.300Z,101882.81
2022-12-29T11:50:02.327Z,101878.22
2022-12-29T11:52:34.329Z,101884.03
2022-12-29T11:55:02.581Z,101877.28
2022-12-29T11:57:30.163Z,101867.34
2022-12-29T11:59:57.718Z,101870.13
2022-12-29T12:02:45.747Z,101858.44
2022-12-29T12:05:17.168Z,101851.38
2022-12-29T12:07:46.979Z,101855.00
2022-12-29T12:10:20.857Z,101842.13
2022-12-29T12:13:20.415Z,101834.91
2022-12-29T12:15:59.148Z,101830.16
2022-12-29T12:18:32.679Z,101822.56
2022-12-29T12:21:19.993Z,101815.22
2022-12-29T12:24:05.315Z,101816.88
2022-12-29T12:29:52.239Z,101821.72
2022-12-29T12:32:26.432Z,101823.50
2022-12-29T12:34:53.544Z,101818.88
2022-12-29T12:37:35.400Z,101815.97
2022-12-29T12:40:17.323Z,101804.59
2022-12-29T12:42:44.395Z,101806.66
2022-12-29T12:45:35.776Z,101793.69
2022-12-29T12:48:18.750Z,101799.03
2022-12-29T12:50:51.734Z,101790.97
2022-12-29T12:53:30.554Z,101796.53
2022-12-29T12:56:17.986Z,101789.00
2022-12-29T12:58:55.963Z,101777.38
2022-12-29T13:01:42.901Z,101770.88
2022-12-29T13:04:31.879Z,101767.75
2022-12-29T13:07:23.185Z,101766.56
2022-12-29T13:10:02.842Z,101753.91
2022-12-29T13:12:37.609Z,101754.59
2022-12-29T13:15:32.801Z,101760.22
2022-12-29T13:18:20.307Z,101744.53
2022-12-29T13:20:51.116Z,101742.53
2022-12-29T13:23:33.777Z,101740.72
2022-12-29T13:26:00.996Z,101739.50
2022-12-29T13:28:33.233Z,101742.22
2022-12-29T13:31:06.626Z,101744.28
2022-12-29T13:33:36.647Z,101736.03
2022-12-29T13:36:15.578Z,101747.38
2022-12-29T13:38:48.679Z,101741.38
2022-12-29T13:41:29.044Z,101746.75
2022-12-29T13:43:57.169Z,101745.97
2022-12-29T13:46:29.759Z,101750.38
2022-12-29T13:49:02.929Z,101749.53
2022-12-29T13:51:30.493Z,101750.56
2022-12-29T13:54:26.195Z,101741.28
2022-12-29T13:57:03.965Z,101738.69
2022-12-29T14:00:03.018Z,101717.03
2022-12-29T14:02:38.948Z,101715.38
2022-12-29T14:05:37.336Z,101721.91
2022-12-29T14:08:17.091Z,101718.44
2022-12-29T14:10:51.513Z,101714.78
2022-12-29T14:13:20.490Z,101710.47
2022-12-29T14:15:53.121Z,101724.59
2022-12-29T14:18:22.652Z,101722.84
2022-12-29T14:20:58.634Z,101721.28
2022-12-29T14:23:37.025Z,101728.28
2022-12-29T14:26:07.931Z,101743.41
2022-12-29T14:28:38.282Z,101746.78
2022-12-29T14:31:28.042Z,101752.09
2022-12-29T14:34:07.119Z,101731.03
2022-12-29T14:36:34.288Z,101748.59
2022-12-29T14:39:01.650Z,101753.00
2022-12-29T14:41:38.323Z,101748.59
2022-12-29T14:44:08.382Z,101746.78
2022-12-29T14:46:50.954Z,101750.34
2022-12-29T14:49:35.710Z,101738.06
2022-12-29T14:52:24.251Z,101747.72
2022-12-29T14:55:06.088Z,101746.69
2022-12-29T14:57:41.212Z,101760.91
2022-12-29T15:00:21.384Z,101749.47
2022-12-29T15:02:53.417Z,101751.19
2022-12-29T15:05:53.313Z,101750.16
2022-12-29T15:08:26.148Z,101748.47
2022-12-29T15:11:02.490Z,101737.00
2022-12-29T15:13:40.923Z,101740.50
2022-12-29T15:16:22.415Z,101757.19
2022-12-29T15:18:49.526Z,101742.16
2022-12-29T15:21:17.390Z,101752.69
2022-12-29T15:23:50.040Z,101753.38
2022-12-29T15:26:25.416Z,101749.03
2022-12-29T15:28:53.600Z,101756.78
2022-12-29T15:31:29.408Z,101758.50
2022-12-29T15:34:09.250Z,101739.94
2022-12-29T15:36:40.738Z,101741.78
2022-12-29T15:39:36.873Z,101749.50
2022-12-29T15:42:08.224Z,101747.72
2022-12-29T15:44:42.931Z,101755.47
2022-12-29T15:47:23.908Z,101749.13
2022-12-29T15:49:59.438Z,101747.56
2022-12-29T15:52:32.373Z,101746.00
2022-12-29T15:54:59.838Z,101745.75
2022-12-29T15:57:31.336Z,101744.16
2022-12-29T16:00:26.902Z,101741.38
2022-12-29T16:02:55.250Z,101742.59
2022-12-29T16:05:24.775Z,101743.47
2022-12-29T16:07:58.990Z,101744.41
2022-12-29T16:10:34.876Z,101754.66
2022-12-29T16:13:24.793Z,101759.75
2022-12-29T16:15:53.379Z,101752.69
2022-12-29T16:18:31.174Z,101763.28
2022-12-29T16:20:58.665Z,101764.09
2022-12-29T16:23:27.435Z,101765.06
2022-12-29T16:26:00.950Z,101772.97
2022-12-29T16:28:51.339Z,101783.22
2022-12-29T16:31:39.749Z,101786.00
2022-12-29T16:34:33.283Z,101774.84
2022-12-29T16:37:00.838Z,101781.78
2022-12-29T16:39:35.425Z,101782.91
2022-12-29T16:45:34.314Z,101778.34
2022-12-29T16:48:10.272Z,101789.59
2022-12-29T16:50:44.440Z,101784.59
2022-12-29T16:53:23.195Z,101789.94
2022-12-29T16:55:56.414Z,101775.78
2022-12-29T16:58:32.886Z,101790.53
2022-12-29T17:01:20.310Z,101787.97
2022-12-29T17:04:11.363Z,101799.88
2022-12-29T17:06:44.691Z,101805.94
2022-12-29T17:09:20.724Z,101799.41
2022-12-29T17:12:00.471Z,101804.75
2022-12-29T17:14:37.431Z,101810.00
2022-12-29T17:17:14.234Z,101810.09
2022-12-29T17:19:44.384Z,101812.63
2022-12-29T17:22:31.964Z,101810.09
2022-12-29T17:25:05.985Z,101813.16
2022-12-29T17:27:47.647Z,101815.88
2022-12-29T17:30:21.548Z,101819.00
2022-12-29T17:33:09.100Z,101810.94
2022-12-29T17:35:37.450Z,101814.38
2022-12-29T17:38:16.711Z,101822.47
2022-12-29T17:40:55.574Z,101825.41
2022-12-29T17:43:26.570Z,101823.16
2022-12-29T17:45:57.619Z,101836.50
2022-12-29T17:48:27.908Z,101841.75
2022-12-29T17:51:13.925Z,101838.09
2022-12-29T17:53:52.264Z,101839.91
2022-12-29T17:56:24.218Z,101837.22
2022-12-29T17:59:00.413Z,101838.06
2022-12-29T18:01:45.413Z,101835.25
2022-12-29T18:04:15.233Z,101846.75
2022-12-29T18:06:45.338Z,101837.19
2022-12-29T18:12:24.825Z,101841.72
2022-12-29T18:15:00.202Z,101838.91
2022-12-29T18:17:35.514Z,101845.16
2022-12-29T18:20:08.802Z,101837.13
2022-12-29T18:22:43.536Z,101841.28
2022-12-29T18:28:22.383Z,101837.75
2022-12-29T18:30:49.745Z,101843.09
2022-12-29T18:33:24.112Z,101853.34
2022-12-29T18:36:06.879Z,101850.19
2022-12-29T18:38:41.921Z,101847.03
2022-12-29T18:41:23.793Z,101850.69
2022-12-29T18:43:54.099Z,101859.25
2022-12-29T18:46:30.954Z,101858.63
2022-12-29T18:49:10.755Z,101856.91
2022-12-29T18:54:43.173Z,101862.13
2022-12-29T18:57:16.841Z,101866.56
2022-12-29T18:59:45.052Z,101862.28
2022-12-29T19:02:44.255Z,101862.28
2022-12-29T19:05:26.118Z,101868.47
2022-12-29T19:07:58.003Z,101871.81
2022-12-29T19:10:41.543Z,101867.63
2022-12-29T19:13:24.539Z,101872.88
2022-12-29T19:16:00.946Z,101863.22
2022-12-29T19:18:53.271Z,101867.41
2022-12-29T19:21:31.058Z,101856.81
2022-12-29T19:24:04.981Z,101867.09
2022-12-29T19:26:52.358Z,101854.75
2022-12-29T19:29:25.121Z,101864.25
2022-12-29T19:31:57.739Z,101856.22
2022-12-29T19:34:43.458Z,101861.94
2022-12-29T19:37:13.265Z,101863.06
2022-12-29T19:39:49.082Z,101862.84
2022-12-29T19:42:17.129Z,101868.59
2022-12-29T19:44:52.010Z,101875.56
2022-12-29T19:47:34.063Z,101874.66
2022-12-29T19:50:04.539Z,101880.09
2022-12-29T19:52:36.902Z,101875.91
2022-12-29T19:55:04.444Z,101878.25
2022-12-29T19:57:41.269Z,101883.44
2022-12-29T20:00:16.664Z,101876.66
2022-12-29T20:02:49.650Z,101881.00
2022-12-29T20:05:20.014Z,101886.19
2022-12-29T20:07:49.695Z,101888.69
2022-12-29T20:10:17.210Z,101882.81
2022-12-29T20:13:03.271Z,101883.91
2022-12-29T20:15:32.935Z,101884.94
2022-12-29T20:18:15.501Z,101884.06
2022-12-29T20:20:48.169Z,101888.44
2022-12-29T20:23:20.456Z,101885.81
2022-12-29T20:25:54.123Z,101886.75
2022-12-29T20:28:24.538Z,101881.66
2022-12-29T20:31:17.345Z,101885.81
2022-12-29T20:33:48.549Z,101886.34
2022-12-29T20:36:19.203Z,101883.91
2022-12-29T20:38:56.480Z,101887.19
2022-12-29T20:41:34.974Z,101886.41
2022-12-29T20:44:06.730Z,101888.16
2022-12-29T20:46:43.546Z,101896.03
2022-12-29T20:49:17.245Z,101894.50
2022-12-29T20:54:39.728Z,101893.53
2022-12-29T20:57:13.507Z,101880.44
2022-12-29T20:59:51.893Z,101890.19
2022-12-29T21:02:26.206Z,101893.56
2022-12-29T21:07:58.925Z,101892.84
2022-12-29T21:10:29.214Z,101898.13
2022-12-29T21:13:02.188Z,101894.53
2022-12-29T21:15:37.164Z,101907.72
2022-12-29T21:18:04.302Z,101912.97
2022-12-29T21:20:34.310Z,101903.41
2022-12-29T21:23:03.828Z,101906.97
2022-12-29T21:25:37.546Z,101910.03
2022-12-29T21:28:12.487Z,101910.25
2022-12-29T21:33:29.124Z,101912.63
2022-12-29T21:36:03.813Z,101909.44
2022-12-29T21:38:43.147Z,101913.00
2022-12-29T21:41:20.208Z,101912.91
2022-12-29T21:44:08.093Z,101915.63
2022-12-29T21:46:44.615Z,101913.09
2022-12-29T21:49:17.562Z,101914.84
2022-12-29T21:51:58.608Z,101916.84
2022-12-29T21:54:51.945Z,101912.00
2022-12-29T21:57:45.313Z,101913.91
2022-12-29T22:00:33.946Z,101911.41
2022-12-29T22:03:23.817Z,101920.09
2022-12-29T22:06:32.899Z,101906.31
2022-12-29T22:09:26.802Z,101915.94
2022-12-29T22:12:26.511Z,101917.69
2022-12-29T22:15:02.385Z,101915.88
2022-12-29T22:20:15.039Z,101926.91
2022-12-29T22:22:53.743Z,101923.28
2022-12-29T22:28:09.812Z,101921.38
2022-12-29T22:33:34.728Z,101927.81
2022-12-29T22:36:20.995Z,101929.31
2022-12-29T22:38:50.375Z,101922.53
2022-12-29T22:41:24.373Z,101929.69
2022-12-29T22:44:02.230Z,101926.97
2022-12-29T22:46:34.907Z,101928.72
2022-12-29T22:49:07.820Z,101927.00
2022-12-29T22:51:34.980Z,101934.63
2022-12-29T22:54:16.274Z,101926.94
2022-12-29T22:56:46.710Z,101931.78
2022-12-29T22:59:20.657Z,101948.56
2022-12-29T23:02:17.849Z,101944.81
2022-12-29T23:05:13.547Z,101940.59
2022-12-29T23:07:50.924Z,101934.41
2022-12-29T23:10:27.913Z,101931.53
2022-12-29T23:12:57.241Z,101934.06
2022-12-29T23:15:33.626Z,101928.59
2022-12-29T23:18:11.143Z,101936.19
2022-12-29T23:20:49.633Z,101942.56
2022-12-29T23:23:49.132Z,101942.25
2022-12-29T23:26:21.237Z,101928.31
2022-12-29T23:28:48.517Z,101924.72
2022-12-29T23:31:20.732Z,101926.59
2022-12-29T23:33:51.898Z,101915.94
2022-12-29T23:39:18.614Z,101913.38
2022-12-29T23:41:46.643Z,101916.81
2022-12-29T23:44:13.806Z,101919.38
2022-12-29T23:46:41.316Z,101923.78
2022-12-29T23:49:14.025Z,101923.97
2022-12-29T23:51:55.077Z,101913.47
2022-12-29T23:54:26.980Z,101912.63
2022-12-29T23:56:54.249Z,101931.78
